.
WxDataArchive / Data Records for 2015-11-26
2015-11-25 November 2015 2015-11-27

Data Records for Thursday, 26 November 2015

Time	Temp	Chill	HIndex	Humid	Dewpt	 Wind 	HiWind	WindDir	Rain 	Barom
-----	----	-----	------	-----	-----	------	------	-------	-----	-----
00:00	48.0	48.0	48.0	57	33.5	1	4	90	0.00	30.321 
00:05	48.0	48.0	48.0	57	33.5	1	3	90	0.00	30.321 
00:10	48.0	48.0	48.0	57	33.5	1	4	90	0.00	30.321 
00:15	47.9	47.9	47.9	58	33.8	0	2	90	0.00	30.321 
00:20	47.9	47.9	47.9	58	33.8	0	3	90	0.00	30.321 
00:25	47.9	47.9	47.9	58	33.8	0	3	90	0.00	30.321 
00:30	47.7	47.7	47.7	58	33.7	0	1	90	0.00	30.322 
00:35	47.6	47.6	47.6	59	34.0	0	2	90	0.00	30.322 
00:40	47.6	47.6	47.6	59	34.0	0	1	90	0.00	30.322 
00:45	47.6	47.6	47.6	60	34.4	0	1	90	0.00	30.322 
00:50	47.6	47.6	47.6	60	34.4	0	2	90	0.00	30.322 
00:55	47.7	47.7	47.7	60	34.5	0	3	90	0.00	30.322 
01:00	47.9	47.9	47.9	60	34.7	0	1	90	0.00	30.322 
01:05	47.9	47.9	47.9	60	34.7	0	1	90	0.00	30.322 
01:10	47.9	47.9	47.9	60	34.7	0	2	90	0.00	30.322 
01:15	48.0	48.0	48.0	61	35.2	0	1	90	0.00	30.319 
01:20	48.0	48.0	48.0	60	34.8	0	2	90	0.00	30.319 
01:25	48.2	48.2	48.2	60	35.0	0	2	90	0.00	30.319 
01:30	48.2	48.2	48.2	60	35.0	0	2	90	0.00	30.316 
01:35	48.2	48.2	48.2	61	35.4	0	1	90	0.00	30.316 
01:40	48.0	48.0	48.0	61	35.2	0	2	90	0.00	30.316 
01:45	48.0	48.0	48.0	61	35.2	0	2	90	0.00	30.314 
01:50	48.2	48.2	48.2	61	35.4	0	5	90	0.00	30.314 
01:55	48.2	48.2	48.2	61	35.4	0	5	68	0.00	30.314 
02:00	48.2	48.2	48.2	61	35.4	0	2	68	0.00	30.317 
02:05	48.5	48.5	48.5	61	35.7	0	4	68	0.00	30.317 
02:10	48.6	48.6	48.6	61	35.8	0	2	68	0.00	30.317 
02:15	48.6	48.6	48.6	61	35.8	0	2	68	0.00	30.317 
02:20	48.6	48.6	48.6	61	35.8	0	1	68	0.00	30.317 
02:25	48.6	48.6	48.6	61	35.8	0	1	68	0.00	30.317 
02:30	48.6	48.6	48.6	62	36.2	0	1	68	0.00	30.318 
02:35	48.8	48.8	48.8	62	36.4	0	1	68	0.00	30.318 
02:40	48.8	48.8	48.8	62	36.4	0	2	68	0.00	30.318 
02:45	48.9	48.9	48.9	62	36.5	0	3	68	0.00	30.320 
02:50	49.1	49.1	49.1	62	36.6	0	1	45	0.00	30.320 
02:55	49.2	49.2	49.2	62	36.7	0	2	45	0.00	30.320 
03:00	49.2	49.2	49.2	62	36.7	0	2	45	0.00	30.320 
03:05	49.4	49.4	49.4	62	36.9	0	2	45	0.00	30.320 
03:10	49.4	49.4	49.4	62	36.9	0	3	45	0.00	30.320 
03:15	49.5	49.5	49.5	62	37.0	0	1	45	0.00	30.327 
03:20	49.5	49.5	49.5	62	37.0	0	2	45	0.00	30.327 
03:25	49.6	49.6	49.6	62	37.1	0	1	45	0.00	30.327 
03:30	49.6	49.6	49.6	63	37.5	0	1	45	0.00	30.326 
03:35	49.8	49.8	49.8	63	37.7	0	3	45	0.00	30.326 
03:40	49.8	49.8	49.8	63	37.7	0	1	45	0.00	30.326 
03:45	49.8	49.8	49.8	63	37.7	0	2	45	0.00	30.323 
03:50	49.8	49.8	49.8	63	37.7	0	1	45	0.00	30.323 
03:55	49.8	49.8	49.8	64	38.1	0	2	45	0.00	30.323 
04:00	49.9	49.9	49.9	64	38.2	0	5	45	0.00	30.325 
04:05	49.9	49.9	49.9	64	38.2	0	1	45	0.00	30.325 
04:10	49.9	49.9	49.9	65	38.6	0	1	45	0.00	30.325 
04:15	50.1	50.1	50.1	65	38.8	0	4	45	0.00	30.333 
04:20	50.1	50.1	50.1	65	38.8	0	3	45	0.00	30.333 
04:25	50.2	50.2	50.2	65	38.9	0	1	45	0.00	30.333 
04:30	50.2	50.2	50.2	66	39.3	0	2	45	0.00	30.333 
04:35	50.2	50.2	50.2	66	39.3	0	1	45	0.00	30.333 
04:40	50.2	50.2	50.2	66	39.3	0	1	45	0.00	30.333 
04:45	50.4	50.4	50.4	67	39.9	0	1	45	0.00	30.335 
04:50	50.4	50.4	50.4	67	39.9	0	3	45	0.00	30.335 
04:55	50.5	50.5	50.5	67	40.0	0	1	45	0.00	30.335 
05:00	50.7	50.7	50.7	68	40.5	1	2	68	0.00	30.335 
05:05	50.8	50.8	50.8	68	40.6	1	3	22	0.00	30.335 
05:10	51.1	51.1	51.1	68	40.9	0	3	112	0.00	30.335 
05:15	51.3	51.3	51.3	68	41.1	0	5	112	0.00	30.340 
05:20	51.4	51.4	51.4	68	41.2	0	2	112	0.00	30.340 
05:25	51.6	51.6	51.6	68	41.4	0	3	45	0.00	30.340 
05:30	51.6	51.6	51.6	68	41.4	0	2	45	0.00	30.340 
05:35	51.6	51.6	51.6	68	41.4	0	3	45	0.00	30.340 
05:40	51.6	51.6	51.6	69	41.8	0	2	45	0.00	30.340 
05:45	51.4	51.4	51.4	69	41.6	1	2	68	0.00	30.340 
05:50	51.4	51.4	51.4	70	41.9	1	3	68	0.00	30.340 
05:55	51.4	51.4	51.4	70	41.9	0	4	68	0.00	30.340 
06:00	51.4	51.4	51.4	71	42.3	0	3	68	0.00	30.340 
06:05	51.3	51.3	51.3	71	42.2	0	3	68	0.00	30.340 
06:10	51.3	51.3	51.3	72	42.6	0	3	68	0.00	30.340 
06:15	51.3	51.3	51.3	72	42.6	1	3	68	0.00	30.337 
06:20	51.4	51.4	51.4	72	42.7	0	4	90	0.00	30.337 
06:25	51.4	51.4	51.4	72	42.7	1	4	90	0.00	30.337 
06:30	51.6	51.6	51.6	72	42.9	0	4	90	0.00	30.341 
06:35	51.6	51.6	51.6	72	42.9	1	3	90	0.00	30.341 
06:40	51.7	51.7	51.7	73	43.3	0	3	90	0.00	30.341 
06:45	51.7	51.7	51.7	73	43.3	1	3	90	0.00	30.339 
06:50	51.9	51.9	51.9	73	43.5	0	3	90	0.00	30.339 
06:55	52.0	52.0	52.0	73	43.6	1	3	90	0.00	30.339 
07:00	52.0	52.0	52.0	73	43.6	0	2	90	0.00	30.350 
07:05	52.2	52.2	52.2	73	43.8	1	3	90	0.00	30.350 
07:10	52.3	52.3	52.3	73	43.9	1	4	248	0.00	30.350 
07:15	52.5	52.5	52.5	72	43.7	1	4	248	0.00	30.354 
07:20	52.8	52.8	52.8	72	44.0	0	3	248	0.00	30.354 
07:25	52.8	52.8	52.8	71	43.7	0	3	248	0.00	30.354 
07:30	52.8	52.8	52.8	71	43.7	0	4	292	0.00	30.354 
07:35	52.9	52.9	52.9	71	43.8	0	4	270	0.00	30.354 
07:40	52.9	52.9	52.9	71	43.8	0	3	248	0.00	30.354 
07:45	52.9	52.9	52.9	71	43.8	0	2	270	0.00	30.358 
07:50	52.9	52.9	52.9	71	43.8	0	2	270	0.00	30.358 
07:55	52.9	52.9	52.9	71	43.8	1	5	90	0.00	30.358 
08:00	52.9	52.9	52.9	71	43.8	1	5	248	0.00	30.359 
08:05	53.1	53.1	53.1	70	43.6	1	4	270	0.00	30.359 
08:10	53.1	53.1	53.1	70	43.6	1	4	248	0.00	30.359 
08:15	53.2	53.2	53.2	70	43.7	1	4	248	0.00	30.363 
08:20	53.2	53.2	53.2	70	43.7	0	3	270	0.00	30.363 
08:25	53.3	53.3	53.3	70	43.8	1	4	248	0.00	30.363 
08:30	53.3	53.3	53.3	70	43.8	1	4	248	0.00	30.366 
08:35	53.2	53.2	53.2	70	43.7	1	5	270	0.00	30.366 
08:40	53.3	53.3	53.3	70	43.8	1	4	248	0.00	30.366 
08:45	53.3	53.3	53.3	70	43.8	1	6	248	0.00	30.367 
08:50	53.5	53.5	53.5	69	43.6	1	6	45	0.00	30.367 
08:55	53.5	53.5	53.5	69	43.6	1	7	112	0.00	30.367 
09:00	53.6	53.6	53.6	69	43.7	1	4	248	0.00	30.376 
09:05	53.6	53.6	53.6	69	43.7	1	6	68	0.00	30.376 
09:10	53.6	53.6	53.6	68	43.3	1	4	248	0.00	30.376 
09:15	53.6	53.6	53.6	68	43.3	1	11	90	0.00	30.380 
09:20	53.5	53.5	53.5	69	43.6	1	4	248	0.00	30.380 
09:25	53.5	53.5	53.5	68	43.2	2	7	248	0.00	30.380 
09:30	53.3	53.3	53.3	69	43.4	1	3	248	0.00	30.384 
09:35	53.3	53.3	53.3	69	43.4	1	3	248	0.00	30.384 
09:40	53.3	53.3	53.3	69	43.4	1	4	270	0.00	30.384 
09:45	53.3	53.3	53.3	69	43.4	1	4	248	0.00	30.386 
09:50	53.3	53.3	53.3	69	43.4	1	4	225	0.00	30.386 
09:55	53.3	53.3	53.3	69	43.4	1	6	248	0.00	30.386 
10:00	53.3	53.3	53.3	69	43.4	1	5	45	0.00	30.388 
10:05	53.6	53.6	53.6	69	43.7	1	5	270	0.00	30.388 
10:10	53.9	53.9	53.9	69	44.0	1	3	248	0.00	30.388 
10:15	54.2	54.2	54.2	69	44.3	1	7	225	0.00	30.383 
10:20	54.5	54.5	54.5	69	44.5	1	4	68	0.00	30.383 
10:25	54.5	54.5	54.5	68	44.2	1	5	248	0.00	30.383 
10:30	54.7	54.7	54.7	68	44.3	1	4	270	0.00	30.383 
10:35	54.7	54.7	54.7	68	44.3	2	6	248	0.00	30.383 
10:40	54.7	54.7	54.7	68	44.3	1	5	248	0.00	30.383 
10:45	54.8	54.8	54.8	68	44.4	1	6	248	0.00	30.384 
10:50	55.0	55.0	55.0	68	44.6	1	3	270	0.00	30.384 
10:55	55.1	55.1	55.1	68	44.7	1	4	248	0.00	30.384 
11:00	55.6	55.6	55.6	68	45.2	1	4	248	0.00	30.385 
11:05	56.0	56.0	56.0	67	45.2	1	5	248	0.00	30.385 
11:10	56.3	56.3	56.3	67	45.5	1	4	270	0.00	30.385 
11:15	56.5	56.5	56.5	66	45.3	1	5	248	0.00	30.381 
11:20	56.6	56.6	56.6	66	45.4	1	5	248	0.00	30.381 
11:25	56.7	56.7	56.7	66	45.5	1	3	248	0.00	30.381 
11:30	57.0	57.0	57.0	66	45.8	2	5	90	0.00	30.370 
11:35	57.2	57.2	57.2	65	45.5	2	7	270	0.00	30.370 
11:40	57.3	57.3	57.3	65	45.6	2	7	225	0.00	30.370 
11:45	57.3	57.3	57.3	66	46.0	1	10	225	0.00	30.363 
11:50	57.5	57.5	57.5	66	46.2	1	5	248	0.00	30.363 
11:55	57.6	57.6	57.6	66	46.3	1	7	248	0.00	30.363 
12:00	57.8	57.8	57.8	67	46.9	2	7	90	0.00	30.348 
12:05	58.3	58.3	58.3	66	47.0	2	6	248	0.00	30.348 
12:10	58.7	58.7	58.7	65	47.0	1	4	248	0.00	30.348 
12:15	59.0	59.0	59.0	64	46.8	3	9	248	0.00	30.348 
12:20	59.2	59.2	59.2	64	47.0	2	6	248	0.00	30.348 
12:25	59.2	59.2	59.2	65	47.4	2	7	248	0.00	30.348 
12:30	58.9	58.9	58.9	65	47.2	2	7	248	0.00	30.343 
12:35	58.9	58.9	58.9	65	47.2	2	5	248	0.00	30.343 
12:40	58.9	58.9	58.9	66	47.6	2	4	270	0.00	30.343 
12:45	58.9	58.9	58.9	66	47.6	1	4	248	0.00	30.332 
12:50	58.9	58.9	58.9	66	47.6	1	4	248	0.00	30.332 
12:55	59.2	59.2	59.2	67	48.2	1	3	248	0.00	30.332 
13:00	59.5	59.5	59.5	67	48.5	1	7	90	0.00	30.325 
13:05	59.8	59.8	59.8	65	48.0	2	4	45	0.00	30.325 
13:10	59.9	59.9	59.9	65	48.1	2	7	248	0.00	30.325 
13:15	60.1	60.1	60.1	65	48.3	1	4	248	0.00	30.326 
13:20	60.2	60.2	60.2	65	48.4	2	9	248	0.00	30.326 
13:25	60.4	60.4	60.4	65	48.6	1	6	248	0.00	30.326 
13:30	60.1	60.1	60.1	64	47.9	2	12	248	0.00	30.315 
13:35	60.1	60.1	60.1	65	48.3	2	5	90	0.00	30.315 
13:40	60.1	60.1	60.1	65	48.3	2	6	248	0.00	30.315 
13:45	60.1	60.1	60.1	65	48.3	1	5	248	0.00	30.314 
13:50	60.1	60.1	60.1	66	48.7	2	8	90	0.00	30.314 
13:55	60.1	60.1	60.1	66	48.7	1	4	22	0.00	30.314 
14:00	59.8	59.8	59.8	66	48.4	1	6	68	0.00	30.313 
14:05	59.5	59.5	59.5	66	48.1	2	7	248	0.00	30.313 
14:10	59.3	59.3	59.3	66	47.9	1	11	248	0.00	30.313 
14:15	59.3	59.3	59.3	66	47.9	1	4	248	0.00	30.311 
14:20	59.3	59.3	59.3	66	47.9	1	4	135	0.00	30.311 
14:25	59.2	59.2	59.2	66	47.8	1	9	45	0.00	30.311 
14:30	59.2	59.2	59.2	65	47.4	1	7	248	0.00	30.312 
14:35	59.2	59.2	59.2	65	47.4	1	5	248	0.00	30.312 
14:40	59.2	59.2	59.2	66	47.8	1	5	68	0.00	30.312 
14:45	59.2	59.2	59.2	66	47.8	1	4	68	0.00	30.295 
14:50	59.3	59.3	59.3	66	47.9	1	4	135	0.00	30.295 
14:55	59.3	59.3	59.3	65	47.5	1	7	248	0.00	30.295 
15:00	59.5	59.5	59.5	66	48.1	1	4	315	0.00	30.299 
15:05	59.8	59.8	59.8	66	48.4	1	3	338	0.00	30.299 
15:10	59.9	59.9	59.9	64	47.7	1	4	90	0.00	30.299 
15:15	60.4	60.4	60.4	63	47.7	2	5	68	0.00	30.291 
15:20	60.5	60.5	60.5	63	47.8	1	6	45	0.00	30.291 
15:25	60.5	60.5	60.5	62	47.4	1	5	248	0.00	30.291 
15:30	60.4	60.4	60.4	63	47.7	1	4	248	0.00	30.290 
15:35	60.4	60.4	60.4	63	47.7	1	3	90	0.00	30.290 
15:40	60.4	60.4	60.4	63	47.7	1	6	90	0.00	30.290 
15:45	60.2	60.2	60.2	63	47.6	1	7	90	0.00	30.290 
15:50	60.1	60.1	60.1	63	47.5	1	10	270	0.00	30.290 
15:55	60.1	60.1	60.1	64	47.9	1	4	270	0.00	30.290 
16:00	60.1	60.1	60.1	64	47.9	1	6	270	0.00	30.289 
16:05	60.1	60.1	60.1	63	47.5	2	13	248	0.00	30.289 
16:10	60.2	60.2	60.2	63	47.6	1	6	270	0.00	30.289 
16:15	59.9	59.9	59.9	63	47.3	1	9	270	0.00	30.286 
16:20	59.6	59.6	59.6	63	47.0	2	13	248	0.00	30.286 
16:25	59.5	59.5	59.5	63	46.9	1	4	112	0.00	30.286 
16:30	59.3	59.3	59.3	64	47.1	1	7	45	0.00	30.291 
16:35	59.0	59.0	59.0	64	46.8	2	7	45	0.00	30.291 
16:40	58.9	58.9	58.9	65	47.2	1	4	68	0.00	30.291 
16:45	58.9	58.9	58.9	65	47.2	1	3	45	0.00	30.293 
16:50	58.7	58.7	58.7	65	47.0	1	6	270	0.00	30.293 
16:55	58.6	58.6	58.6	65	46.9	1	3	112	0.00	30.293 
17:00	58.4	58.4	58.4	65	46.7	1	3	135	0.00	30.290 
17:05	58.3	58.3	58.3	66	47.0	0	2	45	0.00	30.290 
17:10	58.1	58.1	58.1	66	46.8	1	3	45	0.00	30.290 
17:15	57.8	57.8	57.8	66	46.5	1	4	68	0.00	30.288 
17:20	57.8	57.8	57.8	66	46.5	2	5	112	0.00	30.288 
17:25	57.6	57.6	57.6	65	45.9	2	7	90	0.00	30.288 
17:30	57.6	57.6	57.6	65	45.9	1	5	90	0.00	30.287 
17:35	57.5	57.5	57.5	65	45.8	2	8	90	0.00	30.287 
17:40	57.5	57.5	57.5	65	45.8	1	5	68	0.00	30.287 
17:45	57.3	57.3	57.3	65	45.6	1	3	68	0.00	30.283 
17:50	57.2	57.2	57.2	65	45.5	1	7	68	0.00	30.283 
17:55	57.2	57.2	57.2	64	45.1	2	6	112	0.00	30.283 
18:00	57.0	57.0	57.0	64	44.9	1	5	90	0.00	30.284 
18:05	56.9	56.9	56.9	65	45.3	1	4	90	0.00	30.284 
18:10	56.7	56.7	56.7	65	45.1	1	3	90	0.00	30.284 
18:15	56.6	56.6	56.6	65	45.0	1	2	90	0.00	30.295 
18:20	56.5	56.5	56.5	65	44.9	1	5	90	0.00	30.295 
18:25	56.5	56.5	56.5	65	44.9	1	4	112	0.00	30.295 
18:30	56.3	56.3	56.3	65	44.7	0	2	90	0.00	30.284 
18:35	56.3	56.3	56.3	65	44.7	1	4	68	0.00	30.284 
18:40	56.5	56.5	56.5	65	44.9	1	5	112	0.00	30.284 
18:45	56.5	56.5	56.5	65	44.9	1	4	112	0.00	30.278 
18:50	56.5	56.5	56.5	65	44.9	2	5	112	0.00	30.278 
18:55	56.6	56.6	56.6	65	45.0	2	5	90	0.00	30.278 
19:00	56.7	56.7	56.7	64	44.7	1	6	90	0.00	30.275 
19:05	56.7	56.7	56.7	64	44.7	1	4	68	0.00	30.275 
19:10	56.9	56.9	56.9	63	44.4	1	3	68	0.00	30.275 
19:15	56.9	56.9	56.9	63	44.4	2	5	90	0.00	30.275 
19:20	57.0	57.0	57.0	63	44.5	1	4	90	0.00	30.275 
19:25	57.3	57.3	57.3	62	44.4	2	5	90	0.00	30.275 
19:30	57.5	57.5	57.5	62	44.6	2	9	90	0.00	30.277 
19:35	57.5	57.5	57.5	62	44.6	1	5	90	0.00	30.277 
19:40	57.5	57.5	57.5	62	44.6	1	5	112	0.00	30.277 
19:45	57.5	57.5	57.5	63	45.0	1	5	112	0.00	30.280 
19:50	57.5	57.5	57.5	63	45.0	1	4	90	0.00	30.280 
19:55	57.5	57.5	57.5	63	45.0	1	4	90	0.00	30.280 
20:00	57.6	57.6	57.6	63	45.1	1	5	270	0.00	30.289 
20:05	57.6	57.6	57.6	62	44.7	1	4	90	0.00	30.289 
20:10	58.0	58.0	58.0	62	45.1	1	4	90	0.00	30.289 
20:15	58.0	58.0	58.0	62	45.1	1	3	68	0.00	30.292 
20:20	58.0	58.0	58.0	62	45.1	1	3	68	0.00	30.292 
20:25	58.0	58.0	58.0	62	45.1	1	5	112	0.00	30.292 
20:30	58.0	58.0	58.0	62	45.1	1	3	90	0.00	30.293 
20:35	58.0	58.0	58.0	62	45.1	1	4	45	0.00	30.293 
20:40	57.8	57.8	57.8	62	44.9	1	4	68	0.00	30.293 
20:45	57.8	57.8	57.8	62	44.9	1	3	45	0.00	30.290 
20:50	57.8	57.8	57.8	62	44.9	2	5	68	0.00	30.290 
20:55	58.0	58.0	58.0	61	44.6	3	6	90	0.00	30.290 
21:00	58.0	58.0	58.0	61	44.6	2	10	45	0.00	30.282 
21:05	58.0	58.0	58.0	61	44.6	2	7	90	0.00	30.282 
21:10	58.0	58.0	58.0	61	44.6	1	7	90	0.00	30.282 
21:15	58.0	58.0	58.0	61	44.6	1	6	90	0.00	30.287 
21:20	58.0	58.0	58.0	61	44.6	1	5	22	0.00	30.287 
21:25	58.0	58.0	58.0	61	44.6	2	6	90	0.00	30.287 
21:30	58.0	58.0	58.0	61	44.6	2	5	90	0.00	30.282 
21:35	58.0	58.0	58.0	60	44.2	2	7	112	0.00	30.282 
21:40	58.1	58.1	58.1	60	44.3	2	5	90	0.00	30.282 
21:45	58.1	58.1	58.1	60	44.3	1	3	112	0.00	30.279 
21:50	58.3	58.3	58.3	59	44.0	2	6	90	0.00	30.279 
21:55	58.4	58.4	58.4	59	44.1	2	8	90	0.00	30.279 
22:00	58.6	58.6	58.6	59	44.3	2	5	45	0.00	30.269 
22:05	58.7	58.7	58.7	59	44.4	2	7	90	0.00	30.269 
22:10	58.9	58.9	58.9	58	44.1	2	5	68	0.00	30.269 
22:15	58.9	58.9	58.9	58	44.1	1	9	202	0.00	30.267 
22:20	58.9	58.9	58.9	58	44.1	1	5	68	0.00	30.267 
22:25	58.9	58.9	58.9	58	44.1	3	7	90	0.00	30.267 
22:30	58.9	58.9	58.9	58	44.1	1	6	90	0.00	30.261 
22:35	58.9	58.9	58.9	58	44.1	2	6	68	0.00	30.261 
22:40	58.9	58.9	58.9	58	44.1	2	5	90	0.00	30.261 
22:45	59.0	59.0	59.0	58	44.2	3	16	90	0.00	30.252 
22:50	59.0	59.0	59.0	58	44.2	1	10	112	0.00	30.252 
22:55	59.2	59.2	59.2	59	44.9	2	7	90	0.00	30.252 
23:00	59.2	59.2	59.2	58	44.4	2	7	270	0.00	30.246 
23:05	59.2	59.2	59.2	58	44.4	2	9	292	0.00	30.246 
23:10	59.2	59.2	59.2	58	44.4	1	4	248	0.00	30.246 
23:15	59.2	59.2	59.2	58	44.4	2	6	68	0.00	30.244 
23:20	59.2	59.2	59.2	58	44.4	1	9	0	0.00	30.244 
23:25	59.2	59.2	59.2	59	44.9	2	8	68	0.00	30.244 
23:30	59.0	59.0	59.0	59	44.7	1	4	45	0.00	30.242 
23:35	59.0	59.0	59.0	59	44.7	2	7	22	0.00	30.242 
23:40	59.0	59.0	59.0	59	44.7	2	6	90	0.00	30.242 
23:45	59.0	59.0	59.0	59	44.7	2	5	90	0.00	30.229 
23:50	58.9	58.9	58.9	59	44.6	2	7	90	0.00	30.229 
23:55	58.9	58.9	58.9	59	44.6	1	9	90	0.00	30.229 

CoCoRaHS
IN-AL-39
A2 Web Hosting
Creative Commons License
GoDaddy
search engine by freefind advanced

loaded 2018-11-12 14:53:55 • last modified 2010-11-18 10:43:29
Privacy PolicyDisclaimer
• wx.awcolley.com is powered by PmWiki v.2002016 •
• all content (unless otherwise noted) © 2018 A W Colley